Terminal Aerodrome Forecast
Issued by NWS

Home | Current Version | Previous Version | Text Only | Print | Product List | Glossary On
Versions: 1 2 3 4 5 6 7 8 9 10 11
768
FTUS46 KLOX 230540
TAFPMD
TAF
KPMD 230540Z 2306/2406 23007KT P6SM SCT200
     FM231600 26015G25KT P6SM SCT200
     FM231900 27020G30KT P6SM SCT200
     FM240500 27015KT P6SM SKC=

USA.gov is the U.S. government's official web portal to all federal, state and local government web resources and services.